Time;durP1;ratioP1;P1;durP2;ratioP2;P2;SDS_P1;SDS_P2;PMS_P1;PMS_P2;Temp;Humidity;BMP_temperature;BMP_pressure;BME280_temperature;BME280_humidity;BME280_pressure;Samples;Min_cycle;Max_cycle;Signal;HPM_P1;HPM_P2
2021/03/02 00:01:18;;;;;;;5.78;3.95;;;;;;;;;;4990999;28;20092;-70
2021/03/02 00:03:44;;;;;;;5.82;3.78;;;;;;;;;;4992126;28;20030;-70
2021/03/02 00:06:09;;;;;;;5.03;3.72;;;;;;;;;;5007393;28;20053;-70
2021/03/02 00:08:36;;;;;;;6.72;4.40;;;;;;;;;;4990992;28;20042;-70
2021/03/02 00:11:01;;;;;;;6.28;3.65;;;;;;;;;;4976377;28;20046;-71
2021/03/02 00:13:27;;;;;;;6.70;4.40;;;;;;;;;;5011493;28;20026;-70
2021/03/02 00:15:53;;;;;;;5.90;3.88;;;;;;;;;;5029936;28;20033;-70
2021/03/02 00:18:19;;;;;;;6.88;4.47;;;;;;;;;;5047262;28;20112;-71
2021/03/02 00:20:47;;;;;;;5.78;3.95;;;;;;;;;;5046703;28;20179;-70
2021/03/02 00:23:18;;;;;;;6.15;3.88;;;;;;;;;;5013784;28;20392;-70
2021/03/02 00:25:48;;;;;;;5.47;4.32;;;;;;;;;;5028376;28;20029;-71
2021/03/02 00:28:13;;;;;;;5.72;3.72;;;;;;;;;;4989174;28;20041;-70
2021/03/02 00:30:39;;;;;;;6.05;4.50;;;;;;;;;;4973963;28;20031;-71
2021/03/02 00:33:05;;;;;;;5.57;3.72;;;;;;;;;;4974664;28;20066;-71
2021/03/02 00:35:30;;;;;;;6.22;4.18;;;;;;;;;;4966617;28;20034;-70
2021/03/02 00:37:56;;;;;;;5.63;4.03;;;;;;;;;;4990784;28;20445;-70
2021/03/02 00:40:21;;;;;;;5.78;4.00;;;;;;;;;;5009602;28;20074;-70
2021/03/02 00:42:47;;;;;;;5.97;4.15;;;;;;;;;;5010548;28;20442;-70
2021/03/02 00:45:13;;;;;;;8.48;4.68;;;;;;;;;;5026158;28;20041;-70
2021/03/02 00:47:38;;;;;;;6.63;5.15;;;;;;;;;;5012145;28;20037;-70
2021/03/02 00:50:05;;;;;;;6.10;4.15;;;;;;;;;;5006530;28;20404;-70
2021/03/02 00:52:30;;;;;;;6.60;4.45;;;;;;;;;;4977754;28;20042;-70
2021/03/02 00:54:56;;;;;;;5.03;3.95;;;;;;;;;;4994270;28;20064;-70
2021/03/02 00:57:21;;;;;;;5.85;3.80;;;;;;;;;;4978385;28;20444;-70
2021/03/02 00:59:47;;;;;;;5.78;3.92;;;;;;;;;;4961428;28;20042;-70
2021/03/02 01:02:12;;;;;;;5.05;3.95;;;;;;;;;;4993898;28;20034;-70
2021/03/02 01:04:37;;;;;;;5.50;4.45;;;;;;;;;;4977870;28;20038;-70
2021/03/02 01:07:04;;;;;;;6.35;4.43;;;;;;;;;;5012294;28;20401;-70
2021/03/02 01:09:29;;;;;;;5.35;4.05;;;;;;;;;;5013694;28;20396;-70
2021/03/02 01:11:55;;;;;;;5.63;4.32;;;;;;;;;;5013615;28;20026;-70
2021/03/02 01:14:22;;;;;;;5.18;3.88;;;;;;;;;;5024832;28;20446;-70
2021/03/02 01:16:47;;;;;;;6.13;3.80;;;;;;;;;;5049316;28;20037;-70
2021/03/02 01:19:13;;;;;;;5.30;3.83;;;;;;;;;;5049726;28;20082;-70
2021/03/02 01:21:38;;;;;;;8.85;4.18;;;;;;;;;;5032952;28;20391;-70
2021/03/02 01:24:04;;;;;;;5.80;4.40;;;;;;;;;;4977460;28;20396;-70
2021/03/02 01:26:29;;;;;;;6.50;4.00;;;;;;;;;;4999940;28;20030;-71
2021/03/02 01:28:55;;;;;;;6.80;4.28;;;;;;;;;;4995180;28;20034;-70
2021/03/02 01:31:20;;;;;;;6.63;4.85;;;;;;;;;;5029296;28;20041;-70
2021/03/02 01:33:46;;;;;;;7.65;5.00;;;;;;;;;;5012586;28;20034;-70
2021/03/02 01:36:11;;;;;;;5.75;4.05;;;;;;;;;;5029625;28;20088;-70
2021/03/02 01:38:38;;;;;;;5.70;4.20;;;;;;;;;;5012501;28;20080;-70
2021/03/02 01:41:03;;;;;;;7.40;5.10;;;;;;;;;;4996689;28;20029;-70
2021/03/02 01:43:29;;;;;;;6.80;4.18;;;;;;;;;;4996578;28;20030;-70
2021/03/02 01:45:54;;;;;;;6.70;4.35;;;;;;;;;;4996217;28;20030;-70
2021/03/02 01:48:20;;;;;;;5.97;4.65;;;;;;;;;;5012361;28;20041;-70
2021/03/02 01:50:45;;;;;;;6.50;4.40;;;;;;;;;;5011784;28;20392;-70
2021/03/02 01:53:10;;;;;;;5.72;4.20;;;;;;;;;;5012983;28;20681;-70
2021/03/02 01:55:36;;;;;;;8.00;4.20;;;;;;;;;;4964326;28;20041;-70
2021/03/02 01:58:02;;;;;;;9.50;4.03;;;;;;;;;;4993993;28;20042;-70
2021/03/02 02:00:31;;;;;;;5.80;4.38;;;;;;;;;;5023440;28;20038;-70
2021/03/02 02:03:15;;;;;;;6.03;4.43;;;;;;;;;;5013282;28;20042;-70
2021/03/02 02:05:43;;;;;;;5.90;4.57;;;;;;;;;;5013798;28;20514;-70
2021/03/02 02:08:09;;;;;;;5.75;4.60;;;;;;;;;;4996255;28;20389;-70
2021/03/02 02:10:43;;;;;;;5.30;4.00;;;;;;;;;;4996052;28;20045;-70
2021/03/02 02:13:13;;;;;;;5.22;3.97;;;;;;;;;;5013893;28;20029;-70
2021/03/02 02:15:38;;;;;;;5.38;4.40;;;;;;;;;;5031834;28;20036;-70
2021/03/02 02:18:11;;;;;;;5.70;4.85;;;;;;;;;;5011830;28;20034;-70
2021/03/02 02:20:57;;;;;;;6.72;4.60;;;;;;;;;;4995930;28;20038;-70
2021/03/02 02:23:35;;;;;;;6.38;4.38;;;;;;;;;;5008250;28;20677;-70
2021/03/02 02:26:22;;;;;;;6.85;4.93;;;;;;;;;;4997332;28;20105;-70
2021/03/02 02:28:47;;;;;;;6.15;4.55;;;;;;;;;;5013182;28;20045;-70
2021/03/02 02:31:13;;;;;;;6.40;4.80;;;;;;;;;;5028299;28;20042;-70
2021/03/02 02:33:40;;;;;;;6.30;4.07;;;;;;;;;;5028578;28;20033;-70
2021/03/02 02:36:06;;;;;;;5.55;3.88;;;;;;;;;;5028335;28;20026;-70
2021/03/02 02:38:32;;;;;;;6.28;4.70;;;;;;;;;;5028368;28;20030;-70
2021/03/02 02:40:57;;;;;;;5.68;4.28;;;;;;;;;;5011334;28;20076;-70
2021/03/02 02:43:23;;;;;;;5.72;4.13;;;;;;;;;;5026737;28;20033;-70
2021/03/02 02:45:48;;;;;;;6.03;4.25;;;;;;;;;;4995214;28;20036;-70
2021/03/02 02:48:14;;;;;;;6.53;4.43;;;;;;;;;;4985841;28;20042;-70
2021/03/02 02:50:39;;;;;;;5.75;4.10;;;;;;;;;;4975654;28;20038;-70
2021/03/02 02:53:05;;;;;;;6.57;5.15;;;;;;;;;;4993038;28;20088;-70
2021/03/02 02:55:35;;;;;;;6.50;4.68;;;;;;;;;;4992132;28;20034;-70
2021/03/02 02:58:01;;;;;;;6.10;4.35;;;;;;;;;;4976463;28;20039;-70
2021/03/02 03:00:26;;;;;;;5.93;4.45;;;;;;;;;;4991640;28;20038;-70
2021/03/02 03:02:52;;;;;;;5.65;4.60;;;;;;;;;;4975732;28;20039;-70
2021/03/02 03:05:19;;;;;;;6.25;4.82;;;;;;;;;;4991819;28;20038;-70
2021/03/02 03:07:58;;;;;;;5.95;4.72;;;;;;;;;;4959571;28;20041;-70
2021/03/02 03:10:25;;;;;;;5.88;4.30;;;;;;;;;;4960151;28;20061;-70
2021/03/02 03:12:51;;;;;;;5.95;4.80;;;;;;;;;;5003347;28;20034;-70
2021/03/02 03:15:17;;;;;;;7.30;5.38;;;;;;;;;;5009324;28;20124;-70
2021/03/02 03:17:47;;;;;;;5.55;4.55;;;;;;;;;;5011168;28;20136;-70
2021/03/02 03:20:13;;;;;;;6.55;4.80;;;;;;;;;;5011369;28;20046;-70
2021/03/02 03:22:39;;;;;;;5.47;4.10;;;;;;;;;;4994421;28;20030;-70
2021/03/02 03:25:05;;;;;;;5.68;4.15;;;;;;;;;;5001969;28;20465;-70
2021/03/02 03:27:30;;;;;;;6.32;4.40;;;;;;;;;;4972380;28;20045;-70
2021/03/02 03:29:56;;;;;;;7.00;5.10;;;;;;;;;;5027360;28;20812;-70
2021/03/02 03:32:22;;;;;;;6.63;4.57;;;;;;;;;;4994603;28;20504;-70
2021/03/02 03:34:47;;;;;;;6.57;4.80;;;;;;;;;;4980912;28;20080;-70
2021/03/02 03:37:13;;;;;;;6.13;4.43;;;;;;;;;;4975092;28;20389;-70
2021/03/02 03:39:38;;;;;;;6.45;4.43;;;;;;;;;;4990841;28;20053;-70
2021/03/02 03:42:04;;;;;;;6.20;4.43;;;;;;;;;;4975009;28;20439;-70
2021/03/02 03:44:29;;;;;;;5.97;4.72;;;;;;;;;;4991499;28;20026;-70
2021/03/02 03:46:55;;;;;;;5.35;4.25;;;;;;;;;;5007260;28;20366;-70
2021/03/02 03:49:20;;;;;;;5.63;4.28;;;;;;;;;;4991211;28;20038;-70
2021/03/02 03:51:46;;;;;;;6.30;4.80;;;;;;;;;;4992411;28;20551;-70
2021/03/02 03:54:11;;;;;;;6.47;4.90;;;;;;;;;;4990856;28;20035;-70
2021/03/02 03:56:37;;;;;;;5.97;5.30;;;;;;;;;;4974893;28;20034;-70
2021/03/02 03:59:05;;;;;;;6.60;4.82;;;;;;;;;;4974772;28;20042;-70
2021/03/02 04:01:31;;;;;;;6.18;4.43;;;;;;;;;;4958680;28;20038;-70
2021/03/02 04:03:56;;;;;;;5.70;4.55;;;;;;;;;;4975028;28;20042;-70
2021/03/02 04:06:22;;;;;;;6.15;4.32;;;;;;;;;;4993745;28;20408;-70
2021/03/02 04:08:48;;;;;;;6.72;4.95;;;;;;;;;;4993835;28;20108;-70
2021/03/02 04:11:13;;;;;;;5.75;4.30;;;;;;;;;;4994322;28;20034;-70
2021/03/02 04:13:39;;;;;;;5.97;4.70;;;;;;;;;;5000031;28;20029;-70
2021/03/02 04:16:04;;;;;;;6.03;4.65;;;;;;;;;;5029863;28;20038;-70
2021/03/02 04:18:30;;;;;;;6.00;4.65;;;;;;;;;;5014255;28;20617;-70
2021/03/02 04:20:55;;;;;;;6.32;4.95;;;;;;;;;;5012562;28;20623;-70
2021/03/02 04:23:21;;;;;;;7.88;4.65;;;;;;;;;;4995681;28;20026;-70
2021/03/02 04:25:46;;;;;;;5.53;4.47;;;;;;;;;;5014451;28;20077;-70
2021/03/02 04:28:12;;;;;;;5.55;4.50;;;;;;;;;;5031056;28;20038;-70
2021/03/02 04:30:37;;;;;;;7.22;4.32;;;;;;;;;;5030643;28;20045;-70
2021/03/02 04:33:03;;;;;;;6.38;4.25;;;;;;;;;;5014438;28;20451;-70
2021/03/02 04:35:28;;;;;;;5.72;4.68;;;;;;;;;;5029369;28;20077;-70
2021/03/02 04:37:54;;;;;;;7.28;4.50;;;;;;;;;;5013659;28;20064;-70
2021/03/02 04:40:20;;;;;;;6.60;4.65;;;;;;;;;;5014027;28;20038;-70
2021/03/02 04:42:45;;;;;;;5.68;4.45;;;;;;;;;;5014103;28;20076;-70
2021/03/02 04:45:11;;;;;;;6.18;4.43;;;;;;;;;;4996338;28;20038;-70
2021/03/02 04:47:37;;;;;;;7.00;4.70;;;;;;;;;;5013556;28;20395;-70
2021/03/02 04:50:04;;;;;;;5.20;4.57;;;;;;;;;;5013853;28;20030;-70
2021/03/02 04:52:29;;;;;;;6.35;4.60;;;;;;;;;;5013731;28;20030;-70
2021/03/02 04:54:55;;;;;;;6.85;4.95;;;;;;;;;;5014039;28;20372;-70
2021/03/02 04:57:20;;;;;;;5.30;4.03;;;;;;;;;;5013769;28;20387;-70
2021/03/02 04:59:46;;;;;;;5.97;4.70;;;;;;;;;;5023405;28;20041;-70
2021/03/02 05:02:11;;;;;;;5.75;4.90;;;;;;;;;;5013692;28;20037;-70
2021/03/02 05:04:37;;;;;;;7.07;4.88;;;;;;;;;;5013488;28;20442;-70
2021/03/02 05:07:02;;;;;;;6.25;4.97;;;;;;;;;;5013214;28;20561;-70
2021/03/02 05:09:28;;;;;;;6.75;4.90;;;;;;;;;;5014804;28;20034;-70
2021/03/02 05:11:53;;;;;;;5.93;4.75;;;;;;;;;;5014649;28;20027;-70
2021/03/02 05:14:19;;;;;;;5.80;4.72;;;;;;;;;;5013418;28;20044;-70
2021/03/02 05:16:44;;;;;;;6.65;5.13;;;;;;;;;;5013263;28;20033;-70
2021/03/02 05:19:10;;;;;;;7.55;5.30;;;;;;;;;;5014491;28;20113;-70
2021/03/02 05:21:35;;;;;;;7.07;4.82;;;;;;;;;;5013087;28;20384;-70
2021/03/02 05:24:01;;;;;;;6.97;4.43;;;;;;;;;;4996715;28;20782;-70
2021/03/02 05:26:26;;;;;;;5.28;4.43;;;;;;;;;;4997303;28;20361;-70
2021/03/02 05:28:52;;;;;;;6.55;4.40;;;;;;;;;;5018321;28;20053;-70
2021/03/02 05:31:19;;;;;;;5.82;4.30;;;;;;;;;;4977639;28;20397;-70
2021/03/02 05:33:45;;;;;;;5.75;5.00;;;;;;;;;;4992644;28;20034;-70
2021/03/02 05:36:10;;;;;;;6.47;4.95;;;;;;;;;;4993058;28;20137;-70
2021/03/02 05:38:36;;;;;;;5.28;4.18;;;;;;;;;;5020761;28;20041;-70
2021/03/02 05:41:02;;;;;;;6.88;5.03;;;;;;;;;;5009268;28;20046;-70
2021/03/02 05:43:31;;;;;;;5.75;4.35;;;;;;;;;;4977147;28;20038;-70
2021/03/02 05:45:56;;;;;;;5.93;4.47;;;;;;;;;;4977550;28;20064;-70
2021/03/02 05:48:24;;;;;;;7.40;5.03;;;;;;;;;;5007252;28;20043;-70
2021/03/02 05:50:52;;;;;;;8.48;5.13;;;;;;;;;;4975161;28;20031;-70
2021/03/02 05:53:18;;;;;;;5.85;4.25;;;;;;;;;;4975595;28;20034;-70
2021/03/02 05:55:43;;;;;;;10.35;5.60;;;;;;;;;;5008848;28;20100;-70
2021/03/02 05:58:09;;;;;;;5.75;4.57;;;;;;;;;;4984296;28;20049;-70
2021/03/02 06:00:34;;;;;;;6.55;5.03;;;;;;;;;;5012848;28;20435;-70
2021/03/02 06:03:00;;;;;;;5.60;4.30;;;;;;;;;;5012172;28;20392;-70
2021/03/02 06:05:25;;;;;;;8.30;4.40;;;;;;;;;;5012648;28;20427;-70
2021/03/02 06:07:51;;;;;;;8.27;4.25;;;;;;;;;;4983249;28;20117;-70
2021/03/02 06:10:16;;;;;;;8.35;4.85;;;;;;;;;;5028860;28;20030;-70
2021/03/02 06:12:51;;;;;;;9.30;4.90;;;;;;;;;;5012278;28;20404;-70
2021/03/02 06:15:18;;;;;;;6.72;4.88;;;;;;;;;;5013630;28;20061;-71
2021/03/02 06:17:43;;;;;;;8.77;5.03;;;;;;;;;;5010134;28;20894;-70
2021/03/02 06:20:21;;;;;;;7.57;4.97;;;;;;;;;;5009557;28;20030;-70
2021/03/02 06:22:46;;;;;;;11.50;4.85;;;;;;;;;;4994702;28;20026;-70
2021/03/02 06:25:30;;;;;;;6.50;3.83;;;;;;;;;;5012237;28;20060;-70
2021/03/02 06:27:56;;;;;;;14.23;4.82;;;;;;;;;;5011685;28;20084;-70
2021/03/02 06:30:21;;;;;;;6.32;4.15;;;;;;;;;;4979508;28;20439;-70
2021/03/02 06:32:56;;;;;;;8.40;4.72;;;;;;;;;;5012155;28;20041;-70
2021/03/02 06:35:37;;;;;;;10.98;4.03;;;;;;;;;;5012036;28;20038;-70
2021/03/02 06:38:03;;;;;;;8.32;4.35;;;;;;;;;;5011980;28;20030;-70
2021/03/02 06:40:45;;;;;;;9.18;4.40;;;;;;;;;;5012060;28;20026;-70
2021/03/02 06:43:34;;;;;;;12.52;5.75;;;;;;;;;;5012643;28;20054;-70
2021/03/02 06:46:01;;;;;;;8.20;3.97;;;;;;;;;;5010644;28;20053;-70
2021/03/02 06:48:27;;;;;;;11.93;4.65;;;;;;;;;;5007297;28;20388;-70
2021/03/02 06:50:52;;;;;;;6.68;4.05;;;;;;;;;;4983705;28;20049;-70
2021/03/02 06:53:17;;;;;;;6.18;3.90;;;;;;;;;;4993385;28;20037;-70
2021/03/02 06:55:43;;;;;;;7.80;4.22;;;;;;;;;;4992264;28;20502;-70
2021/03/02 06:58:22;;;;;;;9.40;4.10;;;;;;;;;;4975584;28;20034;-71
2021/03/02 07:00:52;;;;;;;6.53;4.15;;;;;;;;;;5001408;28;20116;-70
2021/03/02 07:03:30;;;;;;;8.18;4.57;;;;;;;;;;5011595;28;20117;-71
2021/03/02 07:05:57;;;;;;;10.73;4.50;;;;;;;;;;5010372;28;20034;-70
2021/03/02 07:08:23;;;;;;;13.98;5.05;;;;;;;;;;5011078;28;20129;-71
2021/03/02 07:10:53;;;;;;;9.63;4.40;;;;;;;;;;5000740;28;20113;-71
2021/03/02 07:13:19;;;;;;;10.13;5.45;;;;;;;;;;5025499;28;20434;-70
2021/03/02 07:15:45;;;;;;;8.20;4.43;;;;;;;;;;5037836;28;20038;-71
2021/03/02 07:18:13;;;;;;;23.48;5.75;;;;;;;;;;5005709;28;20076;-72
2021/03/02 07:20:39;;;;;;;10.00;4.30;;;;;;;;;;5009528;28;20026;-72
2021/03/02 07:23:05;;;;;;;9.25;5.05;;;;;;;;;;5009464;28;20027;-72
2021/03/02 07:25:31;;;;;;;9.60;4.80;;;;;;;;;;5008827;28;20040;-72
2021/03/02 07:28:00;;;;;;;8.50;5.13;;;;;;;;;;4993246;28;20041;-72
2021/03/02 07:30:25;;;;;;;8.60;5.07;;;;;;;;;;5010602;28;20041;-72
2021/03/02 07:32:51;;;;;;;9.85;5.43;;;;;;;;;;4996004;28;20378;-72
2021/03/02 07:35:18;;;;;;;11.45;6.40;;;;;;;;;;4976165;28;20049;-72
2021/03/02 07:37:43;;;;;;;8.10;6.28;;;;;;;;;;4992489;28;20044;-72
2021/03/02 07:40:14;;;;;;;9.50;6.15;;;;;;;;;;4974923;28;20042;-72
2021/03/02 07:42:40;;;;;;;10.95;6.65;;;;;;;;;;4990643;28;20145;-71
2021/03/02 07:45:11;;;;;;;8.93;6.97;;;;;;;;;;5007284;28;20125;-72
2021/03/02 07:47:49;;;;;;;9.55;6.32;;;;;;;;;;5007446;28;20128;-72
2021/03/02 07:50:16;;;;;;;10.00;6.45;;;;;;;;;;5023385;28;20087;-72
2021/03/02 07:52:42;;;;;;;8.95;6.43;;;;;;;;;;5026051;28;20038;-72
2021/03/02 07:55:16;;;;;;;10.38;5.78;;;;;;;;;;5009083;28;20069;-72
2021/03/02 07:57:41;;;;;;;10.77;7.18;;;;;;;;;;4990903;28;20026;-72
2021/03/02 08:00:25;;;;;;;10.50;6.10;;;;;;;;;;4993112;28;20485;-72
2021/03/02 08:03:29;;;;;;;11.23;7.35;;;;;;;;;;5010696;28;20034;-72
2021/03/02 08:05:58;;;;;;;19.00;6.72;;;;;;;;;;5026921;28;20499;-72
2021/03/02 08:08:23;;;;;;;11.63;6.05;;;;;;;;;;5011548;28;20042;-72
2021/03/02 08:10:59;;;;;;;9.75;6.43;;;;;;;;;;5012052;28;20036;-72
2021/03/02 08:13:43;;;;;;;10.70;6.50;;;;;;;;;;5013647;28;20065;-72
2021/03/02 08:16:09;;;;;;;12.93;6.70;;;;;;;;;;5027441;28;20116;-72
2021/03/02 08:18:38;;;;;;;11.52;6.47;;;;;;;;;;5010570;28;20030;-72
2021/03/02 08:21:13;;;;;;;11.02;6.22;;;;;;;;;;5026361;28;20034;-72
2021/03/02 08:23:51;;;;;;;12.52;6.65;;;;;;;;;;5011707;28;20042;-72
2021/03/02 08:26:35;;;;;;;9.70;6.35;;;;;;;;;;4999531;28;20113;-72
2021/03/02 08:29:07;;;;;;;10.55;6.20;;;;;;;;;;4990317;28;20046;-70
2021/03/02 08:31:33;;;;;;;;;;;;;;;;;;4992714;28;20164;-70
2021/03/02 08:33:58;;;;;;;10.48;6.03;;;;;;;;;;4990908;28;20004;-69
2021/03/02 08:36:24;;;;;;;9.38;5.97;;;;;;;;;;4991157;28;20030;-70
2021/03/02 08:38:50;;;;;;;9.23;5.40;;;;;;;;;;4990676;28;20022;-69
2021/03/02 08:41:32;;;;;;;7.57;5.18;;;;;;;;;;5002296;28;20037;-71
2021/03/02 08:43:58;;;;;;;8.23;5.50;;;;;;;;;;5002554;28;20117;-69
2021/03/02 08:46:28;;;;;;;12.02;8.50;;;;;;;;;;5009852;28;20040;-69
2021/03/02 08:48:54;;;;;;;12.55;9.10;;;;;;;;;;4993955;28;20099;-69
2021/03/02 08:51:23;;;;;;;11.05;9.70;;;;;;;;;;5011660;28;20030;-69
2021/03/02 08:53:50;;;;;;;12.57;9.23;;;;;;;;;;5010384;28;20034;-69
2021/03/02 08:56:15;;;;;;;12.73;8.52;;;;;;;;;;5026781;28;20029;-69
2021/03/02 08:59:05;;;;;;;11.45;7.95;;;;;;;;;;5010931;28;20045;-69
2021/03/02 09:01:37;;;;;;;15.27;10.52;;;;;;;;;;5010788;28;20081;-70
2021/03/02 09:04:18;;;;;;;14.02;9.20;;;;;;;;;;4994296;28;20404;-69
2021/03/02 09:06:44;;;;;;;16.75;9.73;;;;;;;;;;5009942;28;20034;-69
2021/03/02 09:09:11;;;;;;;16.23;10.48;;;;;;;;;;5012552;28;20510;-69
2021/03/02 09:11:47;;;;;;;16.45;8.40;;;;;;;;;;5002059;28;20105;-69
2021/03/02 09:14:26;;;;;;;19.42;9.20;;;;;;;;;;5028505;28;20041;-69
2021/03/02 09:16:59;;;;;;;18.67;8.57;;;;;;;;;;5012663;28;20030;-70
2021/03/02 09:19:34;;;;;;;16.27;9.23;;;;;;;;;;5013416;28;20034;-69
2021/03/02 09:22:09;;;;;;;23.52;8.65;;;;;;;;;;5025137;28;20033;-69
2021/03/02 09:24:39;;;;;;;18.63;10.10;;;;;;;;;;5011644;28;20503;-70
2021/03/02 09:27:06;;;;;;;21.80;7.90;;;;;;;;;;5009242;28;20104;-70
2021/03/02 09:29:39;;;;;;;16.77;7.10;;;;;;;;;;5011060;28;20496;-70
2021/03/02 09:32:04;;;;;;;19.42;8.20;;;;;;;;;;5011822;28;20125;-71
2021/03/02 09:34:34;;;;;;;19.75;7.43;;;;;;;;;;5012839;28;20033;-71
2021/03/02 09:37:07;;;;;;;20.08;8.02;;;;;;;;;;5012842;28;20037;-71
2021/03/02 09:39:33;;;;;;;19.35;6.85;;;;;;;;;;5012883;28;20085;-71
2021/03/02 09:42:01;;;;;;;23.02;8.07;;;;;;;;;;4996115;28;20108;-71
2021/03/02 09:44:32;;;;;;;18.15;6.68;;;;;;;;;;4996839;28;20124;-71
2021/03/02 09:47:04;;;;;;;22.23;7.95;;;;;;;;;;5012924;28;20084;-71
2021/03/02 09:50:12;;;;;;;21.05;7.00;;;;;;;;;;5008559;28;20046;-71
2021/03/02 09:52:42;;;;;;;16.70;7.32;;;;;;;;;;4999164;28;20034;-71
2021/03/02 09:55:16;;;;;;;15.32;7.25;;;;;;;;;;5028571;28;20037;-71
2021/03/02 09:58:19;;;;;;;20.88;6.25;;;;;;;;;;5013908;28;20075;-71
2021/03/02 10:00:48;;;;;;;;;;;;;;;;;;4995410;28;20172;-71
2021/03/02 10:03:17;;;;;;;16.00;6.43;;;;;;;;;;5008442;28;19913;-71
2021/03/02 10:05:52;;;;;;;15.15;5.55;;;;;;;;;;5013847;28;20044;-70
2021/03/02 10:08:36;;;;;;;13.40;6.00;;;;;;;;;;4994588;28;20511;-70
2021/03/02 10:11:10;;;;;;;15.73;6.07;;;;;;;;;;5002171;28;20030;-70
2021/03/02 10:13:41;;;;;;;23.88;7.50;;;;;;;;;;5013448;28;20420;-70
2021/03/02 10:16:30;;;;;;;15.30;5.85;;;;;;;;;;5011844;28;20041;-70
2021/03/02 10:19:11;;;;;;;14.98;6.75;;;;;;;;;;5012774;28;20034;-70
2021/03/02 10:21:58;;;;;;;19.57;7.00;;;;;;;;;;5011598;28;20038;-70
2021/03/02 10:24:27;;;;;;;20.00;7.15;;;;;;;;;;5012234;28;20670;-70
2021/03/02 10:26:56;;;;;;;19.92;6.93;;;;;;;;;;5012938;28;20092;-70
2021/03/02 10:29:22;;;;;;;23.48;8.40;;;;;;;;;;5013167;28;20042;-70
2021/03/02 10:31:48;;;;;;;30.85;9.48;;;;;;;;;;4995792;28;20112;-70
2021/03/02 10:34:13;;;;;;;30.95;9.55;;;;;;;;;;4963551;28;20618;-70
2021/03/02 10:36:40;;;;;;;24.83;8.80;;;;;;;;;;5009906;28;20034;-70
2021/03/02 10:39:11;;;;;;;17.75;8.63;;;;;;;;;;5008749;28;20392;-70
2021/03/02 10:41:36;;;;;;;19.02;8.50;;;;;;;;;;5009449;28;20030;-70
2021/03/02 10:44:02;;;;;;;24.27;8.88;;;;;;;;;;4993208;28;20045;-70
2021/03/02 10:46:28;;;;;;;22.90;8.65;;;;;;;;;;5010747;28;20026;-71
2021/03/02 10:48:54;;;;;;;21.63;8.52;;;;;;;;;;5027729;28;20041;-71
2021/03/02 10:51:20;;;;;;;19.35;8.27;;;;;;;;;;5026437;28;20025;-71
2021/03/02 10:53:46;;;;;;;15.02;6.55;;;;;;;;;;5005550;28;20038;-71
2021/03/02 10:56:11;;;;;;;14.48;7.03;;;;;;;;;;4992662;28;20049;-71
2021/03/02 10:58:37;;;;;;;14.48;6.68;;;;;;;;;;5003306;28;20121;-71
2021/03/02 11:01:03;;;;;;;15.13;6.43;;;;;;;;;;5011810;28;20046;-71
2021/03/02 11:03:29;;;;;;;13.20;6.38;;;;;;;;;;5004684;28;20137;-71
2021/03/02 11:05:54;;;;;;;14.85;6.25;;;;;;;;;;5006354;28;20183;-71
2021/03/02 11:08:19;;;;;;;9.43;5.88;;;;;;;;;;4994608;28;20053;-71
2021/03/02 11:10:46;;;;;;;13.48;6.10;;;;;;;;;;4991168;28;20034;-70
2021/03/02 11:13:12;;;;;;;15.20;6.57;;;;;;;;;;4992866;28;20031;-70
2021/03/02 11:15:37;;;;;;;10.68;5.78;;;;;;;;;;5012200;28;20114;-70
2021/03/02 11:18:03;;;;;;;11.15;5.28;;;;;;;;;;5012044;28;20034;-70
2021/03/02 11:20:28;;;;;;;11.10;6.10;;;;;;;;;;4993918;28;20054;-70
2021/03/02 11:22:54;;;;;;;22.42;6.25;;;;;;;;;;5010998;28;20175;-70
2021/03/02 11:25:19;;;;;;;12.48;5.70;;;;;;;;;;5012227;28;20536;-70
2021/03/02 11:27:46;;;;;;;12.10;5.50;;;;;;;;;;5010218;28;20041;-70
2021/03/02 11:30:12;;;;;;;9.88;5.88;;;;;;;;;;5005112;28;20587;-70
2021/03/02 11:32:37;;;;;;;11.27;5.75;;;;;;;;;;5012103;28;20045;-70
2021/03/02 11:35:03;;;;;;;11.43;6.20;;;;;;;;;;5027876;28;20395;-70
2021/03/02 11:37:28;;;;;;;13.30;6.07;;;;;;;;;;5018397;28;20030;-70
2021/03/02 11:39:54;;;;;;;10.27;5.63;;;;;;;;;;5011509;28;20042;-70
2021/03/02 11:42:19;;;;;;;8.30;5.90;;;;;;;;;;5006948;28;20051;-70
2021/03/02 11:44:45;;;;;;;9.40;5.80;;;;;;;;;;5001365;28;20045;-70
2021/03/02 11:47:10;;;;;;;9.57;5.75;;;;;;;;;;4990736;28;20034;-70
2021/03/02 11:49:35;;;;;;;9.85;5.63;;;;;;;;;;5011563;28;20496;-70
2021/03/02 11:52:01;;;;;;;11.27;6.63;;;;;;;;;;5010085;28;20030;-70
2021/03/02 11:54:26;;;;;;;10.65;4.97;;;;;;;;;;5009413;28;20042;-70
2021/03/02 11:56:52;;;;;;;10.35;5.70;;;;;;;;;;5008120;28;20510;-70
2021/03/02 11:59:17;;;;;;;10.13;5.45;;;;;;;;;;5010682;28;20046;-70
2021/03/02 12:01:43;;;;;;;11.00;5.50;;;;;;;;;;5009992;28;20048;-70
2021/03/02 12:04:08;;;;;;;9.63;6.10;;;;;;;;;;4992468;28;20042;-70
2021/03/02 12:06:33;;;;;;;10.93;7.63;;;;;;;;;;5010216;28;20542;-70
2021/03/02 12:08:59;;;;;;;12.55;6.68;;;;;;;;;;5009702;28;20034;-70
2021/03/02 12:11:24;;;;;;;12.75;6.80;;;;;;;;;;5007114;28;20038;-70
2021/03/02 12:13:50;;;;;;;11.18;6.65;;;;;;;;;;4973678;28;20047;-70
2021/03/02 12:16:16;;;;;;;11.15;6.40;;;;;;;;;;4995963;28;20065;-70
2021/03/02 12:18:41;;;;;;;12.13;6.30;;;;;;;;;;4972725;28;20115;-70
2021/03/02 12:21:07;;;;;;;8.02;4.93;;;;;;;;;;4965380;28;20097;-70
2021/03/02 12:23:32;;;;;;;9.88;5.35;;;;;;;;;;4962710;28;20042;-70
2021/03/02 12:25:57;;;;;;;7.82;4.72;;;;;;;;;;4971011;28;20105;-70
2021/03/02 12:28:23;;;;;;;9.60;5.03;;;;;;;;;;4987094;28;20496;-70
2021/03/02 12:30:48;;;;;;;8.13;4.82;;;;;;;;;;4998215;28;20057;-70
2021/03/02 12:33:13;;;;;;;10.50;5.10;;;;;;;;;;4972577;28;20031;-70
2021/03/02 12:35:39;;;;;;;8.93;4.68;;;;;;;;;;4969669;28;20043;-70
2021/03/02 12:38:05;;;;;;;8.55;5.20;;;;;;;;;;4969802;28;20401;-70
2021/03/02 12:40:31;;;;;;;7.55;5.05;;;;;;;;;;4986451;28;20048;-70
2021/03/02 12:42:56;;;;;;;6.10;3.95;;;;;;;;;;4970588;28;20459;-70
2021/03/02 12:45:21;;;;;;;9.18;4.82;;;;;;;;;;4974830;28;20050;-70
2021/03/02 12:47:47;;;;;;;7.78;4.68;;;;;;;;;;4974586;28;20043;-70
2021/03/02 12:50:13;;;;;;;8.57;3.97;;;;;;;;;;4974004;28;20049;-70
2021/03/02 12:52:39;;;;;;;7.85;3.70;;;;;;;;;;4971165;28;20027;-70
2021/03/02 12:55:05;;;;;;;8.73;4.70;;;;;;;;;;4955225;29;20103;-70
2021/03/02 12:57:30;;;;;;;6.75;3.90;;;;;;;;;;4968067;28;20035;-70
2021/03/02 12:59:56;;;;;;;8.13;4.47;;;;;;;;;;5006903;28;20125;-70
2021/03/02 13:02:21;;;;;;;8.18;3.70;;;;;;;;;;5005868;28;20497;-70
2021/03/02 13:04:47;;;;;;;7.43;3.58;;;;;;;;;;4974471;28;20039;-70
2021/03/02 13:07:12;;;;;;;7.07;4.03;;;;;;;;;;4990381;28;20039;-70
2021/03/02 13:09:38;;;;;;;9.15;3.80;;;;;;;;;;4989184;28;20038;-70
2021/03/02 13:12:03;;;;;;;6.68;3.60;;;;;;;;;;4970941;28;20043;-70
2021/03/02 13:14:29;;;;;;;7.03;3.65;;;;;;;;;;4971615;28;20146;-71
2021/03/02 13:16:54;;;;;;;9.05;3.65;;;;;;;;;;4966263;28;20065;-71
2021/03/02 13:19:19;;;;;;;10.13;4.13;;;;;;;;;;4971484;28;20592;-71
2021/03/02 13:21:45;;;;;;;11.10;3.92;;;;;;;;;;4975593;28;20102;-70
2021/03/02 13:24:11;;;;;;;10.10;4.22;;;;;;;;;;4973836;28;20401;-70
2021/03/02 13:26:37;;;;;;;7.20;4.32;;;;;;;;;;4974425;28;20026;-70
2021/03/02 13:29:10;;;;;;;8.60;4.13;;;;;;;;;;4957190;28;20058;-70
2021/03/02 13:31:35;;;;;;;7.60;3.92;;;;;;;;;;4974366;28;20089;-70
2021/03/02 13:34:01;;;;;;;8.70;4.13;;;;;;;;;;4958089;28;20034;-70
2021/03/02 13:36:26;;;;;;;9.63;4.28;;;;;;;;;;4974116;28;20057;-70
2021/03/02 13:38:53;;;;;;;6.70;3.38;;;;;;;;;;4957107;28;20049;-70
2021/03/02 13:41:18;;;;;;;10.02;4.38;;;;;;;;;;4973815;28;20035;-70
2021/03/02 13:43:44;;;;;;;6.82;3.67;;;;;;;;;;4953928;29;20097;-70
2021/03/02 13:46:09;;;;;;;10.10;4.07;;;;;;;;;;4970112;28;20379;-70
2021/03/02 13:48:35;;;;;;;9.07;4.03;;;;;;;;;;4986981;28;20031;-70
2021/03/02 13:51:01;;;;;;;9.68;4.03;;;;;;;;;;4955720;28;20027;-70
2021/03/02 13:53:30;;;;;;;7.80;3.95;;;;;;;;;;4986296;28;20037;-70
2021/03/02 13:55:56;;;;;;;8.50;4.13;;;;;;;;;;4985388;28;20031;-70
2021/03/02 13:58:22;;;;;;;8.73;3.50;;;;;;;;;;4986720;28;20034;-70
2021/03/02 14:00:48;;;;;;;8.77;3.58;;;;;;;;;;4970271;28;20129;-70
2021/03/02 14:03:15;;;;;;;6.47;3.40;;;;;;;;;;4955192;28;20046;-70
2021/03/02 14:05:41;;;;;;;11.63;4.95;;;;;;;;;;4973404;28;20031;-70
2021/03/02 14:08:06;;;;;;;9.63;4.32;;;;;;;;;;4957190;28;20045;-70
2021/03/02 14:10:32;;;;;;;7.80;2.88;;;;;;;;;;4973484;28;20146;-70
2021/03/02 14:12:58;;;;;;;5.72;3.35;;;;;;;;;;4973626;28;20114;-70
2021/03/02 14:15:24;;;;;;;6.45;3.08;;;;;;;;;;4993784;28;20105;-70
2021/03/02 14:17:50;;;;;;;8.00;3.00;;;;;;;;;;4976436;28;20030;-70
2021/03/02 14:20:16;;;;;;;7.45;3.47;;;;;;;;;;4976447;28;20396;-70
2021/03/02 14:22:42;;;;;;;7.95;3.60;;;;;;;;;;4992414;28;20085;-70
2021/03/02 14:25:11;;;;;;;12.95;4.18;;;;;;;;;;4993804;28;20082;-70
2021/03/02 14:27:37;;;;;;;5.80;3.10;;;;;;;;;;4976757;28;20491;-70
2021/03/02 14:30:05;;;;;;;8.18;3.38;;;;;;;;;;4960006;28;20035;-70
2021/03/02 14:32:31;;;;;;;9.23;3.78;;;;;;;;;;4973833;28;20424;-70
2021/03/02 14:34:57;;;;;;;6.60;2.90;;;;;;;;;;4972866;28;20097;-70
2021/03/02 14:37:22;;;;;;;7.40;3.67;;;;;;;;;;4988804;28;20064;-71
2021/03/02 14:39:47;;;;;;;6.35;2.90;;;;;;;;;;5005377;28;20481;-70
2021/03/02 14:42:13;;;;;;;5.80;3.42;;;;;;;;;;4988653;28;20038;-70